createdAt,value
2022-08-12T00:00:09.282Z,25.56
2022-08-12T00:02:55.550Z,25.61
2022-08-12T00:06:01.919Z,25.60
2022-08-12T00:08:47.889Z,25.64
2022-08-12T00:11:35.002Z,25.59
2022-08-12T00:14:20.587Z,25.58
2022-08-12T00:17:07.392Z,25.41
2022-08-12T00:19:53.264Z,25.27
2022-08-12T00:22:39.760Z,25.16
2022-08-12T00:26:01.430Z,25.08
2022-08-12T00:28:34.097Z,25.03
2022-08-12T00:31:19.912Z,24.88
2022-08-12T00:34:05.798Z,24.76
2022-08-12T00:36:51.586Z,24.58
2022-08-12T00:39:37.397Z,24.45
2022-08-12T00:42:11.403Z,24.35
2022-08-12T00:44:43.210Z,24.26
2022-08-12T00:47:25.072Z,24.23
2022-08-12T00:49:55.466Z,24.14
2022-08-12T00:52:24.899Z,24.12
2022-08-12T00:54:57.263Z,24.12
2022-08-12T00:57:27.305Z,24.06
2022-08-12T00:59:59.391Z,24.04
2022-08-12T01:02:31.875Z,24.00
2022-08-12T01:05:20.115Z,23.96
2022-08-12T01:08:07.227Z,23.83
2022-08-12T01:10:58.092Z,23.78
2022-08-12T01:13:28.140Z,23.72
2022-08-12T01:15:59.493Z,23.69
2022-08-12T01:18:29.664Z,23.67
2022-08-12T01:21:07.967Z,23.64
2022-08-12T01:24:30.412Z,23.60
2022-08-12T01:26:56.507Z,23.60
2022-08-12T01:29:28.552Z,23.60
2022-08-12T01:32:06.499Z,23.60
2022-08-12T01:34:38.915Z,23.61
2022-08-12T01:37:09.173Z,23.56
2022-08-12T01:40:34.371Z,23.55
2022-08-12T01:42:35.360Z,23.54
2022-08-12T01:45:04.457Z,23.47
2022-08-12T01:47:56.467Z,23.33
2022-08-12T01:50:33.447Z,23.22
2022-08-12T01:53:10.682Z,23.19
2022-08-12T01:55:41.767Z,23.12
2022-08-12T01:58:24.315Z,23.09
2022-08-12T02:01:00.257Z,23.06
2022-08-12T02:03:59.908Z,23.11
2022-08-12T02:06:51.167Z,23.09
2022-08-12T02:09:44.503Z,23.11
2022-08-12T02:12:27.584Z,23.07
2022-08-12T02:15:04.838Z,23.14
2022-08-12T02:17:57.957Z,23.12
2022-08-12T02:20:51.474Z,23.19
2022-08-12T02:23:25.596Z,23.16
2022-08-12T02:25:57.523Z,23.17
2022-08-12T02:28:26.633Z,23.13
2022-08-12T02:30:58.462Z,23.11
2022-08-12T02:33:26.824Z,23.07
2022-08-12T02:35:55.971Z,23.09
2022-08-12T02:38:27.625Z,23.04
2022-08-12T02:40:58.998Z,23.07
2022-08-12T02:43:32.223Z,23.00
2022-08-12T02:46:13.784Z,22.96
2022-08-12T02:48:47.979Z,22.92
2022-08-12T02:51:19.512Z,22.93
2022-08-12T02:54:05.046Z,22.91
2022-08-12T02:56:37.947Z,22.91
2022-08-12T02:59:12.383Z,22.92
2022-08-12T03:01:48.548Z,22.90
2022-08-12T03:04:27.021Z,22.87
2022-08-12T03:07:03.952Z,22.82
2022-08-12T03:09:47.325Z,22.69
2022-08-12T03:12:26.929Z,22.61
2022-08-12T03:15:06.883Z,22.58
2022-08-12T03:17:44.618Z,22.50
2022-08-12T03:20:17.510Z,22.45
2022-08-12T03:22:47.822Z,22.43
2022-08-12T03:25:18.274Z,22.43
2022-08-12T03:27:51.878Z,22.44
2022-08-12T03:30:21.523Z,22.44
2022-08-12T03:32:52.942Z,22.45
2022-08-12T03:35:40.968Z,22.48
2022-08-12T03:38:12.410Z,22.49
2022-08-12T03:41:10.125Z,22.40
2022-08-12T03:44:15.162Z,22.28
2022-08-12T03:47:07.415Z,22.18
2022-08-12T03:49:54.793Z,22.16
2022-08-12T03:52:40.721Z,22.07
2022-08-12T03:55:27.320Z,21.92
2022-08-12T03:58:13.013Z,21.72
2022-08-12T04:00:41.357Z,21.56
2022-08-12T04:03:25.011Z,21.54
2022-08-12T04:05:56.858Z,21.49
2022-08-12T04:08:27.161Z,21.49
2022-08-12T04:11:13.136Z,21.50
2022-08-12T04:13:42.089Z,21.58
2022-08-12T04:16:13.746Z,21.67
2022-08-12T04:18:42.558Z,21.77
2022-08-12T04:21:12.420Z,21.85
2022-08-12T04:23:47.681Z,21.91
2022-08-12T04:26:16.879Z,21.95
2022-08-12T04:28:46.204Z,21.99
2022-08-12T04:31:15.007Z,22.01
2022-08-12T04:33:44.440Z,22.00
2022-08-12T04:36:14.565Z,22.01
2022-08-12T04:38:44.308Z,21.96
2022-08-12T04:41:16.507Z,21.92
2022-08-12T04:44:01.319Z,21.91
2022-08-12T04:46:34.436Z,21.88
2022-08-12T04:49:04.391Z,21.85
2022-08-12T04:51:34.888Z,21.82
2022-08-12T04:54:04.837Z,21.74
2022-08-12T04:56:35.511Z,21.63
2022-08-12T04:59:05.621Z,21.58
2022-08-12T05:01:34.339Z,21.57
2022-08-12T05:04:02.993Z,21.54
2022-08-12T05:06:32.182Z,21.54
2022-08-12T05:09:02.029Z,21.55
2022-08-12T05:11:39.427Z,21.56
2022-08-12T05:14:22.735Z,21.64
2022-08-12T05:16:50.863Z,21.66
2022-08-12T05:19:22.775Z,21.73
2022-08-12T05:21:51.176Z,21.79
2022-08-12T05:24:20.877Z,21.84
2022-08-12T05:26:49.879Z,21.91
2022-08-12T05:30:05.670Z,21.93
2022-08-12T05:32:09.252Z,21.93
2022-08-12T05:34:37.542Z,21.95
2022-08-12T05:37:06.114Z,21.98
2022-08-12T05:39:36.284Z,21.97
2022-08-12T05:42:05.391Z,22.02
2022-08-12T05:44:33.608Z,22.06
2022-08-12T05:47:01.864Z,22.11
2022-08-12T05:49:30.198Z,22.20
2022-08-12T05:51:58.879Z,22.31
2022-08-12T05:54:47.589Z,22.35
2022-08-12T05:57:17.290Z,22.36
2022-08-12T05:59:45.392Z,22.48
2022-08-12T06:02:13.889Z,22.54
2022-08-12T06:04:42.317Z,22.64
2022-08-12T06:07:59.175Z,22.74
2022-08-12T06:10:01.029Z,22.80
2022-08-12T06:12:31.140Z,22.92
2022-08-12T06:15:00.324Z,22.97
2022-08-12T06:17:31.117Z,23.09
2022-08-12T06:20:27.734Z,23.15
2022-08-12T06:22:49.032Z,23.23
2022-08-12T06:25:21.997Z,23.27
2022-08-12T06:28:07.333Z,23.30
2022-08-12T06:30:38.906Z,23.42
2022-08-12T06:33:21.507Z,23.42
2022-08-12T06:35:51.887Z,23.57
2022-08-12T06:38:22.624Z,23.65
2022-08-12T06:41:11.757Z,23.73
2022-08-12T06:44:05.890Z,23.82
2022-08-12T06:46:31.862Z,23.94
2022-08-12T06:49:01.006Z,24.04
2022-08-12T06:51:32.484Z,24.15
2022-08-12T06:54:02.007Z,24.25
2022-08-12T06:57:01.804Z,24.31
2022-08-12T06:59:21.525Z,24.42
2022-08-12T07:01:51.486Z,24.45
2022-08-12T07:04:38.313Z,24.59
2022-08-12T07:07:08.248Z,24.64
2022-08-12T07:10:01.225Z,24.80
2022-08-12T07:12:28.122Z,24.86
2022-08-12T07:14:58.686Z,25.01
2022-08-12T07:17:36.513Z,25.08
2022-08-12T07:20:05.988Z,25.19
2022-08-12T07:22:34.558Z,25.29
2022-08-12T07:25:19.762Z,25.41
2022-08-12T07:27:50.460Z,25.47
2022-08-12T07:30:20.055Z,25.58
2022-08-12T07:32:51.591Z,25.71
2022-08-12T07:35:20.516Z,25.79
2022-08-12T07:37:50.603Z,25.88
2022-08-12T07:40:19.293Z,25.99
2022-08-12T07:42:47.851Z,26.12
2022-08-12T07:45:16.067Z,26.23
2022-08-12T07:47:45.707Z,26.31
2022-08-12T07:50:22.962Z,26.44
2022-08-12T07:52:51.894Z,26.57
2022-08-12T07:55:20.264Z,26.66
2022-08-12T07:57:56.063Z,26.75
2022-08-12T08:00:24.976Z,26.86
2022-08-12T08:02:55.275Z,26.97
2022-08-12T08:05:25.124Z,27.07
2022-08-12T08:07:55.667Z,27.15
2022-08-12T08:10:23.967Z,27.23
2022-08-12T08:12:53.803Z,27.30
2022-08-12T08:15:38.659Z,27.39
2022-08-12T08:18:25.984Z,27.55
2022-08-12T08:20:56.899Z,27.59
2022-08-12T08:23:55.586Z,27.70
2022-08-12T08:26:27.198Z,27.78
2022-08-12T08:28:55.650Z,27.90
2022-08-12T08:31:23.715Z,27.98
2022-08-12T08:34:05.471Z,28.06
2022-08-12T08:36:44.028Z,28.21
2022-08-12T08:39:17.097Z,28.35
2022-08-12T08:42:19.028Z,28.39
2022-08-12T08:44:58.112Z,28.53
2022-08-12T08:47:27.272Z,28.63
2022-08-12T08:50:01.306Z,28.78
2022-08-12T08:52:40.043Z,28.92
2022-08-12T08:55:10.654Z,29.06
2022-08-12T08:57:43.035Z,29.13
2022-08-12T09:00:15.740Z,29.22
2022-08-12T09:02:49.257Z,29.34
2022-08-12T09:05:43.197Z,29.46
2022-08-12T09:08:23.078Z,29.58
2022-08-12T09:11:00.125Z,29.66
2022-08-12T09:16:21.534Z,29.81
2022-08-12T09:18:52.202Z,29.93
2022-08-12T09:21:24.977Z,30.04
2022-08-12T09:24:05.843Z,30.18
2022-08-12T09:26:46.481Z,30.24
2022-08-12T09:30:11.331Z,30.33
2022-08-12T09:32:31.362Z,30.41
2022-08-12T09:35:03.947Z,30.50
2022-08-12T09:37:58.572Z,30.59
2022-08-12T09:42:07.437Z,30.69
2022-08-12T09:43:33.087Z,30.74
2022-08-12T09:46:12.069Z,30.81
2022-08-12T09:48:55.837Z,30.87
2022-08-12T09:51:38.376Z,30.89
2022-08-12T09:54:33.862Z,30.96
2022-08-12T09:58:45.562Z,31.01
2022-08-12T10:00:15.757Z,31.07
2022-08-12T10:02:43.996Z,31.20
2022-08-12T10:05:20.596Z,31.31
2022-08-12T10:07:49.345Z,31.38
2022-08-12T10:10:24.419Z,31.45
2022-08-12T10:13:34.505Z,31.56
2022-08-12T10:16:05.209Z,31.62
2022-08-12T10:18:35.594Z,31.71
2022-08-12T10:21:07.575Z,31.74
2022-08-12T10:23:40.276Z,31.83
2022-08-12T10:26:38.686Z,31.87
2022-08-12T10:30:40.768Z,31.98
2022-08-12T10:32:44.906Z,32.07
2022-08-12T10:35:09.514Z,32.22
2022-08-12T10:38:35.790Z,32.25
2022-08-12T10:40:32.014Z,32.38
2022-08-12T10:43:19.481Z,32.48
2022-08-12T10:45:49.970Z,32.53
2022-08-12T10:48:26.892Z,32.70
2022-08-12T10:52:04.368Z,32.77
2022-08-12T10:54:00.775Z,32.93
2022-08-12T10:56:34.543Z,33.08
2022-08-12T10:59:11.098Z,33.18
2022-08-12T11:04:19.466Z,33.31
2022-08-12T11:04:45.649Z,33.42
2022-08-12T11:08:37.927Z,33.51
2022-08-12T11:10:07.385Z,33.60
2022-08-12T11:12:59.120Z,33.69
2022-08-12T11:16:02.547Z,33.80
2022-08-12T11:18:17.853Z,33.92
2022-08-12T11:20:48.363Z,34.01
2022-08-12T11:23:36.509Z,34.08
2022-08-12T11:26:07.664Z,34.15
2022-08-12T11:28:38.788Z,34.22
2022-08-12T11:31:13.226Z,34.27
2022-08-12T11:34:06.867Z,34.33
2022-08-12T11:36:39.153Z,34.43
2022-08-12T11:39:12.402Z,34.48
2022-08-12T11:41:40.761Z,34.55
2022-08-12T11:44:36.889Z,34.58
2022-08-12T11:47:00.911Z,34.62
2022-08-12T11:49:32.785Z,34.71
2022-08-12T11:52:26.570Z,34.77
2022-08-12T11:54:54.278Z,34.87
2022-08-12T11:58:13.576Z,34.97
2022-08-12T12:03:01.938Z,35.18
2022-08-12T12:05:39.566Z,35.26
2022-08-12T12:08:40.638Z,35.38
2022-08-12T12:11:09.705Z,35.48
2022-08-12T12:14:07.733Z,35.57
2022-08-12T12:16:25.943Z,35.68
2022-08-12T12:18:55.400Z,35.73
2022-08-12T12:21:47.647Z,35.82
2022-08-12T12:24:11.703Z,35.91
2022-08-12T12:26:39.757Z,35.99
2022-08-12T12:30:13.233Z,36.07
2022-08-12T12:32:09.895Z,36.17
2022-08-12T12:35:14.591Z,36.29
2022-08-12T12:38:04.168Z,36.36
2022-08-12T12:40:18.576Z,36.38
2022-08-12T12:42:56.035Z,36.45
2022-08-12T12:45:27.617Z,36.50
2022-08-12T12:48:02.079Z,36.55
2022-08-12T12:50:35.334Z,36.59
2022-08-12T12:53:29.629Z,36.68
2022-08-12T12:56:01.871Z,36.84
2022-08-12T12:58:29.974Z,36.98
2022-08-12T13:00:59.899Z,37.10
2022-08-12T13:03:48.911Z,37.27
2022-08-12T13:06:19.164Z,37.46
2022-08-12T13:08:49.248Z,37.65
2022-08-12T13:11:21.198Z,37.83
2022-08-12T13:14:12.023Z,37.56
2022-08-12T13:16:44.003Z,37.62
2022-08-12T13:19:12.675Z,38.16
2022-08-12T13:21:58.478Z,38.85
2022-08-12T13:24:26.834Z,39.70
2022-08-12T13:26:59.827Z,40.47
2022-08-12T13:29:33.506Z,41.06
2022-08-12T13:32:18.852Z,41.60
2022-08-12T13:34:52.822Z,42.29
2022-08-12T13:37:43.791Z,42.88
2022-08-12T13:40:22.474Z,43.43
2022-08-12T13:42:57.675Z,43.83
2022-08-12T13:45:26.166Z,44.19
2022-08-12T13:47:56.578Z,44.56
2022-08-12T13:50:29.308Z,45.04
2022-08-12T13:53:00.224Z,45.42
2022-08-12T13:55:34.227Z,45.78
2022-08-12T13:58:13.664Z,46.16
2022-08-12T14:00:45.399Z,46.63
2022-08-12T14:03:14.743Z,47.08
2022-08-12T14:05:43.518Z,47.52
2022-08-12T14:08:21.201Z,47.86
2022-08-12T14:10:53.448Z,48.19
2022-08-12T14:14:05.505Z,48.43
2022-08-12T14:16:38.184Z,48.59
2022-08-12T14:19:18.414Z,48.79
2022-08-12T14:21:59.813Z,49.13
2022-08-12T14:24:40.342Z,49.57
2022-08-12T14:27:10.329Z,49.97
2022-08-12T14:30:04.781Z,50.38
2022-08-12T14:32:34.840Z,50.56
2022-08-12T14:35:09.082Z,50.50
2022-08-12T14:37:54.860Z,50.23
2022-08-12T14:40:29.392Z,50.05
2022-08-12T14:42:59.170Z,49.92
2022-08-12T14:45:45.401Z,49.98
2022-08-12T14:48:23.972Z,50.02
2022-08-12T14:52:07.940Z,50.22
2022-08-12T14:57:00.018Z,50.73
2022-08-12T14:59:57.112Z,50.93
2022-08-12T15:02:25.885Z,51.22
2022-08-12T15:04:59.295Z,51.48
2022-08-12T15:07:33.765Z,51.72
2022-08-12T15:10:31.202Z,51.91
2022-08-12T15:13:07.185Z,51.94
2022-08-12T15:15:43.826Z,51.80
2022-08-12T15:18:13.460Z,51.66
2022-08-12T15:20:41.759Z,51.58
2022-08-12T15:23:17.943Z,51.69
2022-08-12T15:26:02.564Z,51.74
2022-08-12T15:28:37.621Z,51.51
2022-08-12T15:31:21.184Z,51.30
2022-08-12T15:33:50.581Z,50.96
2022-08-12T15:36:53.760Z,50.47
2022-08-12T15:39:16.327Z,50.19
2022-08-12T15:41:49.682Z,50.20
2022-08-12T15:44:41.788Z,50.53
2022-08-12T15:47:09.235Z,50.95
2022-08-12T15:49:55.105Z,50.99
2022-08-12T15:52:31.001Z,50.61
2022-08-12T15:55:04.993Z,50.20
2022-08-12T15:57:54.102Z,49.92
2022-08-12T16:00:32.783Z,49.59
2022-08-12T16:03:05.815Z,48.83
2022-08-12T16:06:11.080Z,48.68
2022-08-12T16:08:36.564Z,48.84
2022-08-12T16:11:14.470Z,48.99
2022-08-12T16:13:44.434Z,49.14
2022-08-12T16:16:23.295Z,49.43
2022-08-12T16:18:59.554Z,49.76
2022-08-12T16:21:51.405Z,49.90
2022-08-12T16:24:21.997Z,49.90
2022-08-12T16:26:54.174Z,49.97
2022-08-12T16:29:49.431Z,49.94
2022-08-12T16:32:24.572Z,49.80
2022-08-12T16:35:08.074Z,49.66
2022-08-12T16:38:24.474Z,49.19
2022-08-12T16:40:25.558Z,48.69
2022-08-12T16:43:02.074Z,48.37
2022-08-12T16:46:07.955Z,48.17
2022-08-12T16:48:34.948Z,47.79
2022-08-12T16:51:09.377Z,47.54
2022-08-12T16:53:44.567Z,47.48
2022-08-12T16:56:17.136Z,47.65
2022-08-12T16:58:47.186Z,48.00
2022-08-12T17:01:16.674Z,48.37
2022-08-12T17:04:08.504Z,48.79
2022-08-12T17:06:41.658Z,49.27
2022-08-12T17:09:16.909Z,49.74
2022-08-12T17:11:49.142Z,50.03
2022-08-12T17:14:20.497Z,50.23
2022-08-12T17:16:56.970Z,50.27
2022-08-12T17:20:30.505Z,50.43
2022-08-12T17:22:21.810Z,50.74
2022-08-12T17:24:55.502Z,50.89
2022-08-12T17:27:30.867Z,51.06
2022-08-12T17:30:06.381Z,51.21
2022-08-12T17:32:37.143Z,51.29
2022-08-12T17:35:37.397Z,51.37
2022-08-12T17:38:15.816Z,51.49
2022-08-12T17:40:47.659Z,51.55
2022-08-12T17:43:54.763Z,51.55
2022-08-12T17:46:12.764Z,51.50
2022-08-12T17:48:55.316Z,51.38
2022-08-12T17:51:31.489Z,51.34
2022-08-12T17:54:12.499Z,51.18
2022-08-12T17:56:43.474Z,51.16
2022-08-12T17:59:13.195Z,51.19
2022-08-12T18:01:45.256Z,51.11
2022-08-12T18:04:23.230Z,50.95
2022-08-12T18:07:06.389Z,50.65
2022-08-12T18:09:37.751Z,50.25
2022-08-12T18:12:24.430Z,49.70
2022-08-12T18:14:58.854Z,49.08
2022-08-12T18:17:28.670Z,48.74
2022-08-12T18:20:05.224Z,48.52
2022-08-12T18:22:38.685Z,48.23
2022-08-12T18:26:10.033Z,48.05
2022-08-12T18:28:15.691Z,47.89
2022-08-12T18:30:52.901Z,47.76
2022-08-12T18:33:25.307Z,47.60
2022-08-12T18:35:56.716Z,47.46
2022-08-12T18:38:28.104Z,47.33
2022-08-12T18:41:22.421Z,47.26
2022-08-12T18:44:01.229Z,46.98
2022-08-12T18:46:39.212Z,46.68
2022-08-12T18:49:19.010Z,46.41
2022-08-12T18:51:55.336Z,46.09
2022-08-12T18:54:35.128Z,45.71
2022-08-12T18:57:19.285Z,45.29
2022-08-12T19:00:01.390Z,44.77
2022-08-12T19:02:39.706Z,44.32
2022-08-12T19:05:11.120Z,44.02
2022-08-12T19:08:00.399Z,43.80
2022-08-12T19:10:32.747Z,42.98
2022-08-12T19:13:23.434Z,42.15
2022-08-12T19:15:58.079Z,41.20
2022-08-12T19:18:30.936Z,40.28
2022-08-12T19:21:06.120Z,39.55
2022-08-12T19:23:35.671Z,38.87
2022-08-12T19:26:05.270Z,38.37
2022-08-12T19:28:39.151Z,37.93
2022-08-12T19:31:55.733Z,37.47
2022-08-12T19:35:06.537Z,36.87
2022-08-12T19:37:20.379Z,36.43
2022-08-12T19:40:08.036Z,36.06
2022-08-12T19:42:42.629Z,35.64
2022-08-12T19:45:15.584Z,35.36
2022-08-12T19:47:46.867Z,35.09
2022-08-12T19:50:19.844Z,34.84
2022-08-12T19:52:51.371Z,34.56
2022-08-12T19:55:23.669Z,34.39
2022-08-12T19:58:02.678Z,34.22
2022-08-12T20:00:35.003Z,34.07
2022-08-12T20:03:05.324Z,33.90
2022-08-12T20:06:05.124Z,33.78
2022-08-12T20:08:29.326Z,33.69
2022-08-12T20:12:14.109Z,33.60
2022-08-12T20:14:01.740Z,33.50
2022-08-12T20:16:57.122Z,33.39
2022-08-12T20:19:53.167Z,33.18
2022-08-12T20:22:24.015Z,33.08
2022-08-12T20:25:01.276Z,32.90
2022-08-12T20:28:03.355Z,32.88
2022-08-12T20:30:37.584Z,32.78
2022-08-12T20:33:18.546Z,32.64
2022-08-12T20:36:06.471Z,32.49
2022-08-12T20:38:40.648Z,32.36
2022-08-12T20:41:16.183Z,32.30
2022-08-12T20:43:45.033Z,32.19
2022-08-12T20:46:15.995Z,32.10
2022-08-12T20:48:44.551Z,32.00
2022-08-12T20:51:15.780Z,31.90
2022-08-12T20:53:57.944Z,31.78
2022-08-12T20:56:31.609Z,31.81
2022-08-12T20:59:02.134Z,31.78
2022-08-12T21:01:46.820Z,31.69
2022-08-12T21:04:34.857Z,31.62
2022-08-12T21:07:08.947Z,31.53
2022-08-12T21:09:41.568Z,31.42
2022-08-12T21:12:27.880Z,31.28
2022-08-12T21:15:17.015Z,31.14
2022-08-12T21:18:08.999Z,30.90
2022-08-12T21:20:39.063Z,30.80
2022-08-12T21:23:09.894Z,30.73
2022-08-12T21:25:45.050Z,30.62
2022-08-12T21:28:14.797Z,30.45
2022-08-12T21:31:10.881Z,30.32
2022-08-12T21:33:58.804Z,30.14
2022-08-12T21:36:34.880Z,29.92
2022-08-12T21:39:20.431Z,29.77
2022-08-12T21:41:51.720Z,29.62
2022-08-12T21:44:24.117Z,29.48
2022-08-12T21:47:12.154Z,29.38
2022-08-12T21:50:03.043Z,29.20
2022-08-12T21:52:36.148Z,29.02
2022-08-12T21:55:07.995Z,28.79
2022-08-12T21:57:50.588Z,28.67
2022-08-12T22:00:31.556Z,28.54
2022-08-12T22:04:01.981Z,28.34
2022-08-12T22:06:26.044Z,28.27
2022-08-12T22:09:03.848Z,28.11
2022-08-12T22:11:42.332Z,28.06
2022-08-12T22:14:21.673Z,28.00
2022-08-12T22:16:52.327Z,27.98
2022-08-12T22:19:21.060Z,27.90
2022-08-12T22:21:53.253Z,27.85
2022-08-12T22:24:26.919Z,27.80
2022-08-12T22:26:58.818Z,27.82
2022-08-12T22:29:44.703Z,27.81
2022-08-12T22:32:15.743Z,27.76
2022-08-12T22:34:45.932Z,27.68
2022-08-12T22:37:19.961Z,27.55
2022-08-12T22:39:49.085Z,27.46
2022-08-12T22:42:41.503Z,27.28
2022-08-12T22:45:27.558Z,27.16
2022-08-12T22:47:56.985Z,27.12
2022-08-12T22:50:28.863Z,27.12
2022-08-12T22:53:15.425Z,27.03
2022-08-12T22:55:59.159Z,26.87
2022-08-12T22:58:31.917Z,26.74
2022-08-12T23:01:02.168Z,26.60
2022-08-12T23:03:47.850Z,26.61
2022-08-12T23:06:22.070Z,26.64
2022-08-12T23:08:52.420Z,26.67
2022-08-12T23:11:23.474Z,26.69
2022-08-12T23:13:56.951Z,26.70
2022-08-12T23:16:30.971Z,26.63
2022-08-12T23:19:09.747Z,26.45
2022-08-12T23:22:05.889Z,26.36
2022-08-12T23:24:53.919Z,26.26
2022-08-12T23:27:52.315Z,26.19
2022-08-12T23:30:32.004Z,26.11
2022-08-12T23:33:03.203Z,26.09
2022-08-12T23:35:53.752Z,26.07
2022-08-12T23:38:31.742Z,26.03
2022-08-12T23:41:03.532Z,25.97
2022-08-12T23:43:38.447Z,25.90
2022-08-12T23:46:10.265Z,25.83
2022-08-12T23:48:38.988Z,25.79
2022-08-12T23:51:22.113Z,25.73
2022-08-12T23:53:55.004Z,25.65
2022-08-12T23:56:25.518Z,25.61
2022-08-12T23:58:57.601Z,25.55
